Time;durP1;ratioP1;P1;durP2;ratioP2;P2;SDS_P1;SDS_P2;PMS_P1;PMS_P2;Temp;Humidity;BMP_temperature;BMP_pressure;BME280_temperature;BME280_humidity;BME280_pressure;Samples;Min_cycle;Max_cycle;Signal;HPM_P1;HPM_P2
2023/01/08 00:02:08;;;;;;;;;;;;;;;15.54;53.88;101558.47;5098723;28;1094;-54
2023/01/08 00:04:33;;;;;;;;;;;;;;;17.16;50.11;101558.59;5099201;28;1228;-54
2023/01/08 00:06:59;;;;;;;;;;;;;;;16.29;51.89;101569.28;5098360;28;1006;-55
2023/01/08 00:09:24;;;;;;;;;;;;;;;15.83;52.98;101560.34;5098849;28;1082;-54
2023/01/08 00:11:50;;;;;;;;;;;;;;;15.56;53.68;101564.53;5098674;28;999;-54
2023/01/08 00:14:15;;;;;;;;;;;;;;;15.45;53.55;101567.34;5098950;28;1157;-50
2023/01/08 00:16:40;;;;;;;;;;;;;;;16.74;51.11;101562.75;5098632;28;1066;-53
2023/01/08 00:19:06;;;;;;;;;;;;;;;17.12;49.97;101575.84;5098396;28;1906;-53
2023/01/08 00:21:31;;;;;;;;;;;;;;;16.17;52.39;101568.53;5098722;28;1175;-51
2023/01/08 00:23:57;;;;;;;;;;;;;;;15.77;53.06;101575.00;5098721;28;1038;-55
2023/01/08 00:26:22;;;;;;;;;;;;;;;15.60;53.34;101573.09;5098356;28;1066;-53
2023/01/08 00:28:50;;;;;;;;;;;;;;;16.37;52.01;101574.34;5098435;28;1055;-54
2023/01/08 00:31:15;;;;;;;;;;;;;;;17.36;49.35;101566.22;5087672;28;1041;-54
2023/01/08 00:33:41;;;;;;;;;;;;;;;16.28;51.82;101577.75;5098929;28;1092;-55
2023/01/08 00:36:07;;;;;;;;;;;;;;;15.82;53.20;101583.34;5098344;28;1101;-55
2023/01/08 00:38:33;;;;;;;;;;;;;;;15.63;53.26;101575.34;5098035;28;1905;-55
2023/01/08 00:40:58;;;;;;;;;;;;;;;16.52;51.67;101572.88;5097991;28;991;-54
2023/01/08 00:43:23;;;;;;;;;;;;;;;16.96;50.31;101581.19;5093677;28;1204;-53
2023/01/08 00:45:52;;;;;;;;;;;;;;;16.08;52.26;101573.63;5097879;28;1078;-54
2023/01/08 00:48:18;;;;;;;;;;;;;;;15.76;53.00;101576.91;5084602;28;1024;-54
2023/01/08 00:50:43;;;;;;;;;;;;;;;15.51;53.50;101571.81;5098376;28;1144;-54
2023/01/08 00:53:08;;;;;;;;;;;;;;;16.36;52.08;101571.84;5097717;28;1150;-56
2023/01/08 00:55:34;;;;;;;;;;;;;;;16.95;50.33;101574.00;5097593;28;1114;-55
2023/01/08 00:57:59;;;;;;;;;;;;;;;16.05;52.35;101572.22;5097777;28;1901;-56
2023/01/08 01:00:25;;;;;;;;;;;;;;;15.67;53.43;101571.03;5097193;28;1173;-53
2023/01/08 01:02:50;;;;;;;;;;;;;;;15.49;53.63;101563.03;5097775;28;1185;-56
2023/01/08 01:05:16;;;;;;;;;;;;;;;17.02;50.35;101568.31;5097940;28;1181;-54
2023/01/08 01:07:45;;;;;;;;;;;;;;;16.63;51.14;101558.19;5097014;28;1134;-54
2023/01/08 01:10:11;;;;;;;;;;;;;;;15.96;52.76;101565.47;5097965;28;1170;-54
2023/01/08 01:12:37;;;;;;;;;;;;;;;15.66;53.16;101552.09;5082970;28;1248;-56
2023/01/08 01:15:04;;;;;;;;;;;;;;;15.51;53.82;101560.88;5097316;28;1086;-54
2023/01/08 01:17:29;;;;;;;;;;;;;;;17.06;50.17;101559.31;5097286;28;1988;-54
2023/01/08 01:19:54;;;;;;;;;;;;;;;16.62;51.01;101559.31;5097116;28;1213;-52
2023/01/08 01:22:20;;;;;;;;;;;;;;;15.98;52.58;101557.84;5097213;28;1062;-54
2023/01/08 01:24:45;;;;;;;;;;;;;;;15.68;53.07;101564.47;5097770;28;1125;-55
2023/01/08 01:27:11;;;;;;;;;;;;;;;16.34;51.91;101572.09;5097085;28;1213;-55
2023/01/08 01:29:36;;;;;;;;;;;;;;;17.05;49.77;101565.88;5097062;28;1082;-54
2023/01/08 01:32:02;;;;;;;;;;;;;;;16.07;52.61;101558.25;5096873;28;836;-53
2023/01/08 01:34:27;;;;;;;;;;;;;;;15.75;53.01;101564.28;5097491;28;1190;-51
2023/01/08 01:36:53;;;;;;;;;;;;;;;15.97;52.83;101564.41;5097036;28;1100;-54
2023/01/08 01:39:18;;;;;;;;;;;;;;;17.34;49.06;101551.91;5097513;28;1906;-50
2023/01/08 01:41:44;;;;;;;;;;;;;;;16.28;51.95;101562.13;5096352;28;1175;-53
2023/01/08 01:44:28;;;;;;;;;;;;;;;15.83;52.76;101563.91;5096610;28;1091;-49
2023/01/08 01:46:53;;;;;;;;;;;;;;;15.59;53.37;101556.91;5096721;28;1126;-53
2023/01/08 01:49:20;;;;;;;;;;;;;;;16.46;51.56;101554.69;5096902;28;1257;-54
2023/01/08 01:51:46;;;;;;;;;;;;;;;17.23;49.57;101552.88;5078577;28;1206;-52
2023/01/08 01:54:12;;;;;;;;;;;;;;;16.21;51.80;101564.22;5095630;28;1122;-56
2023/01/08 01:56:37;;;;;;;;;;;;;;;15.81;52.84;101570.72;5096467;28;915;-55
2023/01/08 01:59:03;;;;;;;;;;;;;;;16.12;52.37;101560.22;5096961;28;1913;-55
2023/01/08 02:01:29;;;;;;;;;;;;;;;17.39;49.11;101557.47;5096069;28;1158;-54
2023/01/08 02:03:54;;;;;;;;;;;;;;;16.33;51.60;101561.38;5094943;28;1082;-54
2023/01/08 02:06:35;;;;;;;;;;;;;;;15.88;52.69;101549.47;5088683;28;1154;-54
2023/01/08 02:09:03;;;;;;;;;;;;;;;15.64;53.11;101559.72;5094006;28;869;-54
2023/01/08 02:11:35;;;;;;;;;;;;;;;15.67;53.28;101551.84;5096260;28;1152;-53
2023/01/08 02:14:21;;;;;;;;;;;;;;;17.35;49.39;101550.81;5096665;28;1202;-54
2023/01/08 02:17:05;;;;;;;;;;;;;;;16.37;51.69;101546.88;5095654;28;1550;-52
2023/01/08 02:19:40;;;;;;;;;;;;;;;15.81;52.69;101537.81;5095213;28;1976;-53
2023/01/08 02:22:11;;;;;;;;;;;;;;;15.58;53.29;101539.59;5095813;28;1169;-52
2023/01/08 02:24:37;;;;;;;;;;;;;;;16.04;52.66;101543.09;5096591;28;1201;-52
2023/01/08 02:27:02;;;;;;;;;;;;;;;17.30;49.29;101536.19;5096379;28;1137;-50
2023/01/08 02:29:27;;;;;;;;;;;;;;;16.21;51.76;101536.78;5095122;28;1083;-51
2023/01/08 02:31:53;;;;;;;;;;;;;;;15.77;53.05;101531.97;5094690;28;1137;-50
2023/01/08 02:34:18;;;;;;;;;;;;;;;15.56;53.45;101534.38;5095020;28;1197;-55
2023/01/08 02:36:47;;;;;;;;;;;;;;;17.03;50.09;101540.59;5095795;28;1097;-52
2023/01/08 02:39:15;;;;;;;;;;;;;;;16.69;50.78;101539.88;5094835;28;1979;-55
2023/01/08 02:41:41;;;;;;;;;;;;;;;15.95;52.45;101536.41;5095971;28;1205;-51
2023/01/08 02:44:07;;;;;;;;;;;;;;;15.65;52.96;101548.50;5095162;28;1104;-52
2023/01/08 02:46:32;;;;;;;;;;;;;;;15.51;53.39;101539.75;5094582;28;1130;-52
2023/01/08 02:49:02;;;;;;;;;;;;;;;16.40;51.49;101532.66;5096459;28;1027;-54
2023/01/08 02:51:34;;;;;;;;;;;;;;;17.20;49.21;101534.16;5094503;28;1058;-55
2023/01/08 02:54:04;;;;;;;;;;;;;;;16.17;51.87;101538.34;5095054;28;1083;-52
2023/01/08 02:56:30;;;;;;;;;;;;;;;15.78;52.97;101543.75;5081600;28;856;-53
2023/01/08 02:58:56;;;;;;;;;;;;;;;15.53;53.39;101536.78;5094146;28;1917;-54
2023/01/08 03:01:21;;;;;;;;;;;;;;;15.80;52.90;101547.13;5095086;28;1139;-53
2023/01/08 03:03:51;;;;;;;;;;;;;;;17.34;49.32;101540.91;5094556;28;1071;-53
2023/01/08 03:06:17;;;;;;;;;;;;;;;16.41;51.27;101536.22;5097839;28;1137;-54
2023/01/08 03:08:43;;;;;;;;;;;;;;;15.84;52.89;101548.31;5099154;28;1050;-53
2023/01/08 03:11:12;;;;;;;;;;;;;;;15.56;53.35;101548.06;5100388;28;1166;-53
2023/01/08 03:13:37;;;;;;;;;;;;;;;15.66;53.09;101541.94;5098256;28;1209;-50
2023/01/08 03:16:04;;;;;;;;;;;;;;;17.26;49.54;101541.38;5099727;28;1209;-52
2023/01/08 03:18:34;;;;;;;;;;;;;;;16.51;50.90;101546.50;5098633;28;1992;-53
2023/01/08 03:21:00;;;;;;;;;;;;;;;15.91;52.60;101544.28;5098228;28;1047;-50
2023/01/08 03:23:26;;;;;;;;;;;;;;;15.70;53.10;101545.84;5098336;28;1067;-52
2023/01/08 03:25:51;;;;;;;;;;;;;;;16.04;52.36;101543.09;5099410;28;1132;-49
2023/01/08 03:28:24;;;;;;;;;;;;;;;17.19;49.43;101549.81;5099520;28;1116;-53
2023/01/08 03:30:49;;;;;;;;;;;;;;;16.15;52.16;101544.09;5098254;28;1102;-53
2023/01/08 03:33:15;;;;;;;;;;;;;;;15.82;52.77;101550.44;5097489;28;1086;-53
2023/01/08 03:35:40;;;;;;;;;;;;;;;15.56;53.28;101552.75;5098998;28;1114;-50
2023/01/08 03:38:08;;;;;;;;;;;;;;;15.34;53.63;101550.69;5098008;28;1917;-53
2023/01/08 03:40:34;;;;;;;;;;;;;;;16.98;50.06;101550.69;5099293;28;1058;-51
2023/01/08 03:43:00;;;;;;;;;;;;;;;16.46;51.13;101554.69;5097779;28;1707;-51
2023/01/08 03:45:25;;;;;;;;;;;;;;;15.87;52.51;101553.28;5098759;28;912;-54
2023/01/08 03:47:50;;;;;;;;;;;;;;;15.60;53.31;101562.13;5099239;28;1165;-53
2023/01/08 03:50:16;;;;;;;;;;;;;;;16.63;50.84;101549.97;5098310;28;1143;-54
2023/01/08 03:52:42;;;;;;;;;;;;;;;17.16;49.48;101553.09;5097602;28;1102;-53
2023/01/08 03:55:08;;;;;;;;;;;;;;;16.23;51.64;101551.09;5099111;28;1042;-55
2023/01/08 03:57:33;;;;;;;;;;;;;;;15.82;52.74;101545.81;5098420;28;2009;-53
2023/01/08 03:59:59;;;;;;;;;;;;;;;15.59;52.98;101546.75;5098784;28;1156;-54
2023/01/08 04:02:24;;;;;;;;;;;;;;;15.87;52.92;101536.81;5099280;28;1162;-56
2023/01/08 04:04:49;;;;;;;;;;;;;;;17.30;49.17;101542.50;5098760;28;1121;-53
2023/01/08 04:07:15;;;;;;;;;;;;;;;16.27;51.52;101545.91;5098804;28;1083;-55
2023/01/08 04:09:40;;;;;;;;;;;;;;;15.86;52.78;101549.69;5098336;28;863;-54
2023/01/08 04:12:06;;;;;;;;;;;;;;;15.63;52.86;101547.94;5098610;28;1265;-54
2023/01/08 04:14:31;;;;;;;;;;;;;;;15.45;53.45;101548.16;5098427;28;1082;-53
2023/01/08 04:16:57;;;;;;;;;;;;;;;16.92;50.13;101541.56;5097817;28;1117;-53
2023/01/08 04:19:22;;;;;;;;;;;;;;;16.97;49.81;101544.38;5098737;28;1909;-52
2023/01/08 04:21:50;;;;;;;;;;;;;;;16.13;52.01;101545.44;5082404;28;2415;-54
2023/01/08 04:24:16;;;;;;;;;;;;;;;15.80;52.56;101544.41;5098321;28;1807;-57
2023/01/08 04:26:41;;;;;;;;;;;;;;;15.80;52.84;101541.66;5096229;28;1966;-58
2023/01/08 04:29:07;;;;;;;;;;;;;;;17.42;48.90;101537.69;5098064;28;2137;-58
2023/01/08 04:31:33;;;;;;;;;;;;;;;16.47;50.87;101539.88;5097498;28;2124;-61
2023/01/08 04:33:58;;;;;;;;;;;;;;;15.97;52.28;101536.97;5096400;28;1871;-56
2023/01/08 04:36:23;;;;;;;;;;;;;;;15.73;52.90;101544.53;5096188;28;2041;-58
2023/01/08 04:38:49;;;;;;;;;;;;;;;15.51;53.26;101536.19;5097052;28;1985;-62
2023/01/08 04:41:17;;;;;;;;;;;;;;;16.55;50.95;101542.16;5097523;28;1241;-62
2023/01/08 04:43:42;;;;;;;;;;;;;;;16.89;50.03;101536.59;5097444;28;1063;-58
2023/01/08 04:46:08;;;;;;;;;;;;;;;16.06;51.87;101538.22;5097749;28;860;-61
2023/01/08 04:48:33;;;;;;;;;;;;;;;15.77;52.67;101544.84;5096534;28;1205;-60
2023/01/08 04:50:59;;;;;;;;;;;;;;;17.03;49.76;101537.84;5097714;28;1197;-59
2023/01/08 04:53:25;;;;;;;;;;;;;;;16.84;49.83;101550.22;5096992;28;1050;-56
2023/01/08 04:55:50;;;;;;;;;;;;;;;16.16;51.78;101548.50;5097413;28;1089;-58
2023/01/08 04:58:15;;;;;;;;;;;;;;;15.86;52.56;101551.59;5096983;28;1963;-57
2023/01/08 05:00:41;;;;;;;;;;;;;;;15.63;53.11;101552.59;5097742;28;1114;-57
2023/01/08 05:03:06;;;;;;;;;;;;;;;15.94;52.36;101558.59;5097555;28;1122;-57
2023/01/08 05:05:32;;;;;;;;;;;;;;;17.37;48.78;101548.63;5096976;28;1113;-57
2023/01/08 05:07:58;;;;;;;;;;;;;;;16.43;50.98;101553.28;5095330;28;2730;-55
2023/01/08 05:10:23;;;;;;;;;;;;;;;15.92;52.46;101547.84;5097143;28;859;-56
2023/01/08 05:12:48;;;;;;;;;;;;;;;15.68;52.73;101545.28;5096832;28;1062;-58
2023/01/08 05:15:14;;;;;;;;;;;;;;;16.42;51.40;101549.72;5097252;28;1102;-60
2023/01/08 05:17:39;;;;;;;;;;;;;;;17.21;49.04;101549.59;5097091;28;1901;-57
2023/01/08 05:20:05;;;;;;;;;;;;;;;16.24;51.74;101555.47;5096622;28;1059;-57
2023/01/08 05:22:30;;;;;;;;;;;;;;;15.86;52.52;101551.59;5096848;28;864;-59
2023/01/08 05:24:56;;;;;;;;;;;;;;;15.64;52.81;101557.81;5096928;28;1158;-59
2023/01/08 05:27:21;;;;;;;;;;;;;;;17.15;49.39;101562.41;5096076;28;1077;-58
2023/01/08 05:29:47;;;;;;;;;;;;;;;16.58;50.55;101555.41;5096427;28;1134;-59
2023/01/08 05:32:16;;;;;;;;;;;;;;;16.01;51.92;101560.06;5096999;28;1042;-56
2023/01/08 05:34:42;;;;;;;;;;;;;;;15.75;52.66;101553.31;5096305;28;987;-61
2023/01/08 05:37:07;;;;;;;;;;;;;;;15.53;53.20;101555.97;5093447;28;2287;-57
2023/01/08 05:39:33;;;;;;;;;;;;;;;16.89;50.10;101553.06;5090794;28;1906;-53
2023/01/08 05:41:58;;;;;;;;;;;;;;;16.93;49.77;101560.53;5095878;28;1159;-57
2023/01/08 05:44:23;;;;;;;;;;;;;;;16.12;51.88;101552.00;5096920;28;1057;-58
2023/01/08 05:46:49;;;;;;;;;;;;;;;15.85;52.36;101556.28;5096671;28;870;-56
2023/01/08 05:49:14;;;;;;;;;;;;;;;17.20;49.22;101556.16;5094843;28;1270;-58
2023/01/08 05:51:40;;;;;;;;;;;;;;;16.36;51.05;101563.63;5096565;28;1027;-59
2023/01/08 05:54:05;;;;;;;;;;;;;;;15.94;52.31;101553.13;5096209;28;1145;-59
2023/01/08 05:56:31;;;;;;;;;;;;;;;15.70;52.88;101565.03;5096639;28;1055;-58
2023/01/08 05:58:56;;;;;;;;;;;;;;;16.70;50.53;101571.75;5095525;28;1984;-59
2023/01/08 06:01:22;;;;;;;;;;;;;;;17.04;49.45;101566.13;5097210;28;1118;-57
2023/01/08 06:03:47;;;;;;;;;;;;;;;16.18;51.77;101565.53;5096224;28;1039;-61
2023/01/08 06:06:12;;;;;;;;;;;;;;;15.84;52.28;101571.06;5096264;28;1165;-58
2023/01/08 06:08:38;;;;;;;;;;;;;;;15.62;53.03;101573.66;5094004;28;2599;-57
2023/01/08 06:11:05;;;;;;;;;;;;;;;15.48;53.09;101581.38;5095877;28;940;-57
2023/01/08 06:13:30;;;;;;;;;;;;;;;17.09;49.52;101591.75;5095794;28;1118;-59
2023/01/08 06:15:59;;;;;;;;;;;;;;;16.64;50.25;101584.59;5096207;28;1019;-59
2023/01/08 06:18:25;;;;;;;;;;;;;;;15.99;52.19;101591.59;5095628;28;1897;-57
2023/01/08 06:20:50;;;;;;;;;;;;;;;15.72;52.79;101594.94;5095812;28;1082;-60
2023/01/08 06:23:15;;;;;;;;;;;;;;;17.00;50.06;101593.31;5095879;28;1129;-58
2023/01/08 06:25:41;;;;;;;;;;;;;;;16.61;50.48;101601.56;5095806;28;1205;-57
2023/01/08 06:28:07;;;;;;;;;;;;;;;17.09;49.79;101599.19;5095859;28;1010;-58
2023/01/08 06:30:32;;;;;;;;;;;;;;;18.17;47.17;101591.97;5096247;28;1042;-58
2023/01/08 06:32:58;;;;;;;;;;;;;;;16.77;49.71;101597.97;5095497;28;1165;-58
2023/01/08 06:35:23;;;;;;;;;;;;;;;16.22;49.59;101593.31;5083538;28;1061;-58
2023/01/08 06:37:49;;;;;;;;;;;;;;;17.47;49.33;101588.31;5086618;28;1901;-59
2023/01/08 06:40:14;;;;;;;;;;;;;;;16.51;50.33;101590.44;5095813;28;1054;-55
2023/01/08 06:42:42;;;;;;;;;;;;;;;18.24;47.53;101588.97;5094905;28;1107;-54
2023/01/08 06:45:07;;;;;;;;;;;;;;;17.99;48.07;101593.19;5095899;28;1156;-58
2023/01/08 06:47:33;;;;;;;;;;;;;;;16.97;49.02;101602.06;5095572;28;1006;-59
2023/01/08 06:49:58;;;;;;;;;;;;;;;17.73;48.95;101598.47;5095755;28;1085;-57
2023/01/08 06:52:24;;;;;;;;;;;;;;;16.97;49.61;101593.84;5095906;28;1134;-55
2023/01/08 06:54:49;;;;;;;;;;;;;;;16.89;50.31;101602.53;5095391;28;1050;-58
2023/01/08 06:57:15;;;;;;;;;;;;;;;17.87;48.39;101606.28;5095165;28;1213;-62
2023/01/08 06:59:40;;;;;;;;;;;;;;;16.98;49.32;101603.72;5095947;28;1909;-62
2023/01/08 07:02:07;;;;;;;;;;;;;;;17.95;48.95;101603.09;5095780;28;1403;-58
2023/01/08 07:04:33;;;;;;;;;;;;;;;17.36;49.12;101612.13;5080941;28;1067;-59
2023/01/08 07:06:58;;;;;;;;;;;;;;;16.85;48.70;101609.56;5093574;28;2326;-55
2023/01/08 07:09:23;;;;;;;;;;;;;;;17.45;49.77;101605.91;5095158;28;1234;-57
2023/01/08 07:11:49;;;;;;;;;;;;;;;17.65;48.85;101601.69;5095665;28;1027;-59
2023/01/08 07:14:14;;;;;;;;;;;;;;;16.95;49.06;101608.91;5095536;28;1101;-57
2023/01/08 07:16:40;;;;;;;;;;;;;;;17.82;49.10;101606.25;5095641;28;1122;-57
2023/01/08 07:19:05;;;;;;;;;;;;;;;16.99;49.67;101615.56;5095129;28;1914;-55
2023/01/08 07:21:31;;;;;;;;;;;;;;;16.71;48.46;101618.19;5094638;28;1085;-55
2023/01/08 07:23:58;;;;;;;;;;;;;;;17.72;48.98;101612.47;5095838;28;1177;-55
2023/01/08 07:26:23;;;;;;;;;;;;;;;16.82;49.22;101618.34;5095059;28;1140;-57
2023/01/08 07:28:49;;;;;;;;;;;;;;;17.21;49.52;101615.53;5095030;28;996;-56
2023/01/08 07:31:14;;;;;;;;;;;;;;;17.34;49.36;101620.63;5095220;28;1070;-58
2023/01/08 07:33:39;;;;;;;;;;;;;;;17.33;50.15;101629.13;5094782;28;1139;-58
2023/01/08 07:36:05;;;;;;;;;;;;;;;18.93;46.81;101621.09;5095582;28;1065;-58
2023/01/08 07:38:31;;;;;;;;;;;;;;;17.35;49.20;101622.28;5086117;28;2476;-55
2023/01/08 07:40:57;;;;;;;;;;;;;;;17.68;49.27;101620.41;5095459;28;1444;-56
2023/01/08 07:43:24;;;;;;;;;;;;;;;17.93;48.64;101621.78;5094855;28;1102;-55
2023/01/08 07:45:49;;;;;;;;;;;;;;;17.19;48.92;101623.19;5094869;28;1091;-55
2023/01/08 07:48:15;;;;;;;;;;;;;;;18.34;48.33;101622.09;5095478;28;1118;-55
2023/01/08 07:50:43;;;;;;;;;;;;;;;17.40;49.31;101619.63;5095108;28;1071;-55
2023/01/08 07:53:09;;;;;;;;;;;;;;;17.08;49.51;101623.09;5098707;28;1093;-54
2023/01/08 07:55:34;;;;;;;;;;;;;;;17.78;48.94;101615.03;5098702;28;1144;-56
2023/01/08 07:58:00;;;;;;;;;;;;;;;17.13;48.99;101630.56;5098669;28;1972;-59
2023/01/08 08:00:25;;;;;;;;;;;;;;;17.41;49.59;101626.75;5098635;28;1070;-60
2023/01/08 08:02:51;;;;;;;;;;;;;;;17.29;49.77;101628.81;5097963;28;1439;-55
2023/01/08 08:05:17;;;;;;;;;;;;;;;17.87;49.12;101628.31;5085730;28;1130;-56
2023/01/08 08:07:42;;;;;;;;;;;;;;;19.11;46.38;101622.53;5096216;28;2319;-56
2023/01/08 08:10:08;;;;;;;;;;;;;;;17.62;48.90;101615.97;5098231;28;1220;-56
2023/01/08 08:12:33;;;;;;;;;;;;;;;17.25;49.48;101623.00;5098302;28;996;-58
2023/01/08 08:14:59;;;;;;;;;;;;;;;17.76;49.20;101614.44;5098909;28;1146;-57
2023/01/08 08:17:25;;;;;;;;;;;;;;;17.35;49.20;101624.19;5098532;28;1097;-58
2023/01/08 08:19:51;;;;;;;;;;;;;;;19.08;46.74;101617.56;5098314;28;1996;-57
2023/01/08 08:22:16;;;;;;;;;;;;;;;17.77;48.86;101627.13;5097622;28;1089;-57
2023/01/08 08:24:42;;;;;;;;;;;;;;;17.33;48.46;101629.94;5097525;28;1038;-55
2023/01/08 08:27:07;;;;;;;;;;;;;;;18.00;48.75;101621.56;5098193;28;1129;-58
2023/01/08 08:29:32;;;;;;;;;;;;;;;17.49;48.98;101624.63;5097951;28;1100;-59
2023/01/08 08:31:58;;;;;;;;;;;;;;;17.20;48.30;101622.13;5097763;28;1062;-60
2023/01/08 08:34:23;;;;;;;;;;;;;;;18.09;48.50;101618.06;5097159;28;1062;-57
2023/01/08 08:36:49;;;;;;;;;;;;;;;17.33;48.57;101618.13;5096856;28;1871;-56
2023/01/08 08:39:14;;;;;;;;;;;;;;;17.00;48.60;101620.78;5089925;28;2008;-55
2023/01/08 08:41:41;;;;;;;;;;;;;;;17.38;49.06;101621.78;5097707;28;1151;-55
2023/01/08 08:44:07;;;;;;;;;;;;;;;17.93;48.80;101611.59;5097384;28;1058;-56
2023/01/08 08:46:32;;;;;;;;;;;;;;;19.35;46.11;101619.28;5095692;28;1131;-59
2023/01/08 08:48:57;;;;;;;;;;;;;;;17.84;48.62;101615.91;5097449;28;995;-54
2023/01/08 08:51:23;;;;;;;;;;;;;;;17.31;48.24;101621.16;5097474;28;1074;-58
2023/01/08 08:53:48;;;;;;;;;;;;;;;17.19;47.65;101612.22;5097807;28;1035;-59
2023/01/08 08:56:14;;;;;;;;;;;;;;;17.51;48.43;101614.22;5097511;28;1066;-56
2023/01/08 08:58:40;;;;;;;;;;;;;;;17.55;49.28;101607.91;5097580;28;1980;-59
2023/01/08 09:01:07;;;;;;;;;;;;;;;17.17;48.58;101603.41;5097342;28;1069;-56
2023/01/08 09:03:32;;;;;;;;;;;;;;;18.41;48.23;101606.19;5097404;28;1106;-55
2023/01/08 09:05:58;;;;;;;;;;;;;;;17.40;49.26;101602.25;5097289;28;1039;-54
2023/01/08 09:08:23;;;;;;;;;;;;;;;17.07;48.52;101598.63;5095651;28;2511;-59
2023/01/08 09:10:48;;;;;;;;;;;;;;;18.22;48.61;101589.25;5096749;28;1074;-55
2023/01/08 09:13:14;;;;;;;;;;;;;;;17.35;48.88;101583.81;5097323;28;1193;-56
2023/01/08 09:15:39;;;;;;;;;;;;;;;17.22;49.53;101592.44;5097253;28;1201;-56
2023/01/08 09:18:05;;;;;;;;;;;;;;;17.78;48.98;101593.00;5096927;28;1901;-58
2023/01/08 09:20:30;;;;;;;;;;;;;;;17.86;49.30;101588.94;5097269;28;1473;-58
2023/01/08 09:22:59;;;;;;;;;;;;;;;19.39;46.29;101592.84;5096743;28;1074;-59
2023/01/08 09:25:24;;;;;;;;;;;;;;;17.93;48.87;101578.56;5096686;28;1070;-59
2023/01/08 09:27:57;;;;;;;;;;;;;;;17.47;48.27;101586.38;5097136;28;1018;-59
2023/01/08 09:30:22;;;;;;;;;;;;;;;17.18;47.71;101572.91;5097226;28;1247;-58
2023/01/08 09:32:48;;;;;;;;;;;;;;;18.24;48.36;101577.97;5096910;28;1220;-59
2023/01/08 09:35:13;;;;;;;;;;;;;;;17.33;49.06;101572.22;5096280;28;1219;-58
2023/01/08 09:37:39;;;;;;;;;;;;;;;17.10;48.02;101573.38;5088507;28;2472;-60
2023/01/08 09:40:04;;;;;;;;;;;;;;;16.90;47.41;101562.94;5095769;28;1980;-58
2023/01/08 09:42:30;;;;;;;;;;;;;;;17.80;48.85;101562.50;5095797;28;1263;-59
2023/01/08 09:44:55;;;;;;;;;;;;;;;17.10;49.33;101552.19;5096730;28;1062;-58
2023/01/08 09:47:25;;;;;;;;;;;;;;;18.88;47.28;101543.88;5096636;28;1498;-58
2023/01/08 09:49:51;;;;;;;;;;;;;;;18.05;48.76;101548.13;5095284;28;1019;-57
2023/01/08 09:52:17;;;;;;;;;;;;;;;17.37;48.85;101540.38;5094921;28;1012;-58
2023/01/08 09:54:42;;;;;;;;;;;;;;;17.17;47.81;101552.00;5096361;28;1094;-58
2023/01/08 09:57:12;;;;;;;;;;;;;;;16.92;47.54;101541.56;5095068;28;1062;-57
2023/01/08 09:59:37;;;;;;;;;;;;;;;16.86;47.72;101543.41;5081716;28;1894;-57
2023/01/08 10:02:03;;;;;;;;;;;;;;;17.70;48.72;101545.91;5095213;28;1024;-58
2023/01/08 10:04:28;;;;;;;;;;;;;;;17.07;48.67;101538.16;5095714;28;1062;-57
2023/01/08 10:06:59;;;;;;;;;;;;;;;18.59;48.27;101530.53;5094420;28;2347;-59
2023/01/08 10:09:26;;;;;;;;;;;;;;;17.75;49.00;101534.94;5096083;28;1031;-59
2023/01/08 10:11:51;;;;;;;;;;;;;;;17.19;48.74;101524.25;5095707;28;1089;-57
2023/01/08 10:14:21;;;;;;;;;;;;;;;17.02;48.15;101525.19;5095414;28;1203;-58
2023/01/08 10:16:46;;;;;;;;;;;;;;;18.07;48.80;101518.41;5095704;28;1034;-62
2023/01/08 10:19:12;;;;;;;;;;;;;;;17.24;49.19;101516.06;5095218;28;1978;-58
2023/01/08 10:21:38;;;;;;;;;;;;;;;17.48;49.54;101515.75;5096247;28;1181;-58
2023/01/08 10:24:04;;;;;;;;;;;;;;;17.59;49.11;101512.00;5093860;28;899;-58
2023/01/08 10:26:30;;;;;;;;;;;;;;;17.06;48.93;101503.53;5095940;28;1109;-54
2023/01/08 10:29:09;;;;;;;;;;;;;;;18.33;48.14;101499.28;5096041;28;1197;-53
2023/01/08 10:31:38;;;;;;;;;;;;;;;17.30;49.18;101493.03;5095300;28;1015;-50
2023/01/08 10:34:09;;;;;;;;;;;;;;;18.67;47.94;101496.13;5094693;28;1019;-53
2023/01/08 10:36:38;;;;;;;;;;;;;;;18.01;48.64;101486.47;5095654;28;1132;-55
2023/01/08 10:39:04;;;;;;;;;;;;;;;17.31;49.06;101489.19;5086577;28;2617;-50
2023/01/08 10:41:30;;;;;;;;;;;;;;;17.20;47.92;101484.69;5095813;28;1075;-51
2023/01/08 10:44:02;;;;;;;;;;;;;;;18.08;48.73;101481.53;5095628;28;1143;-53
2023/01/08 10:46:29;;;;;;;;;;;;;;;17.31;48.63;101480.97;5090772;28;1007;-55
2023/01/08 10:48:56;;;;;;;;;;;;;;;17.38;49.11;101478.00;5092745;28;931;-55
2023/01/08 10:51:23;;;;;;;;;;;;;;;18.10;48.56;101481.28;5094480;28;1166;-55
2023/01/08 10:53:49;;;;;;;;;;;;;;;17.36;48.93;101464.50;5094110;28;1070;-54
2023/01/08 10:56:17;;;;;;;;;;;;;;;17.22;48.72;101466.88;5094746;28;1174;-53
2023/01/08 10:58:43;;;;;;;;;;;;;;;17.72;49.08;101466.69;5094925;28;1898;-54
2023/01/08 11:01:15;;;;;;;;;;;;;;;17.40;49.56;101460.16;5095291;28;1158;-54
2023/01/08 11:03:41;;;;;;;;;;;;;;;19.21;46.53;101452.72;5094481;28;1209;-51
2023/01/08 11:06:13;;;;;;;;;;;;;;;17.78;48.82;101449.97;5095746;28;1086;-51
2023/01/08 11:08:38;;;;;;;;;;;;;;;17.33;48.12;101450.47;5092850;28;2745;-52
2023/01/08 11:11:10;;;;;;;;;;;;;;;17.07;47.59;101453.00;5093781;28;1198;-49
2023/01/08 11:13:35;;;;;;;;;;;;;;;17.15;47.57;101451.66;5090543;28;1059;-55
2023/01/08 11:16:04;;;;;;;;;;;;;;;17.61;48.94;101454.78;5093909;28;1294;-55
2023/01/08 11:18:30;;;;;;;;;;;;;;;17.14;48.22;101450.00;5077158;28;1906;-54
2023/01/08 11:21:06;;;;;;;;;;;;;;;18.53;47.83;101453.66;5095073;28;1030;-54
2023/01/08 11:23:31;;;;;;;;;;;;;;;17.47;49.18;101445.34;5090867;28;1146;-53
2023/01/08 11:26:07;;;;;;;;;;;;;;;17.12;48.53;101443.94;5085879;28;1053;-53
2023/01/08 11:28:51;;;;;;;;;;;;;;;17.64;49.29;101454.25;5098465;28;1175;-51
2023/01/08 11:31:18;;;;;;;;;;;;;;;17.05;49.31;101447.72;5099218;28;1134;-53
2023/01/08 11:33:44;;;;;;;;;;;;;;;18.95;47.10;101449.94;5098478;28;1142;-50
2023/01/08 11:36:11;;;;;;;;;;;;;;;17.61;49.09;101449.28;5098235;28;966;-51
2023/01/08 11:38:36;;;;;;;;;;;;;;;17.17;48.74;101449.50;5089967;28;2697;-52
2023/01/08 11:41:31;;;;;;;;;;;;;;;17.58;48.72;101444.31;5098700;28;1047;-54
2023/01/08 11:44:15;;;;;;;;;;;;;;;17.50;49.12;101450.31;5059220;28;1247;-54
2023/01/08 11:46:42;;;;;;;;;;;;;;;17.61;49.16;101446.53;5085930;28;1004;-53
2023/01/08 11:49:11;;;;;;;;;;;;;;;17.99;49.00;101439.09;5097425;28;1481;-51
2023/01/08 11:51:55;;;;;;;;;;;;;;;17.30;48.82;101443.56;5097203;28;1051;-54
2023/01/08 11:54:30;;;;;;;;;;;;;;;17.03;47.83;101447.16;5098905;28;1133;-54
2023/01/08 11:56:55;;;;;;;;;;;;;;;17.77;48.97;101445.56;5098400;28;1011;-52
2023/01/08 11:59:56;;;;;;;;;;;;;;;17.18;48.62;101445.66;5098522;28;1913;-54
2023/01/08 12:02:26;;;;;;;;;;;;;;;16.86;47.86;101444.50;5035895;28;1282;-51
2023/01/08 12:05:07;;;;;;;;;;;;;;;17.91;48.48;101434.13;5083137;28;1538;-55
2023/01/08 12:07:36;;;;;;;;;;;;;;;17.14;49.39;101428.03;5096602;28;2255;-49
2023/01/08 12:10:20;;;;;;;;;;;;;;;18.50;48.03;101440.44;5098717;28;1054;-51
2023/01/08 12:12:56;;;;;;;;;;;;;;;18.23;48.33;101439.50;5088455;28;845;-50
2023/01/08 12:15:28;;;;;;;;;;;;;;;17.42;48.69;101441.47;5097071;28;1070;-50
2023/01/08 12:18:03;;;;;;;;;;;;;;;17.20;47.95;101437.97;5098239;28;1981;-55
2023/01/08 12:21:01;;;;;;;;;;;;;;;18.09;48.57;101438.31;5096761;28;1074;-51
2023/01/08 12:23:51;;;;;;;;;;;;;;;17.22;48.51;101436.63;5045827;28;1262;-51
2023/01/08 12:26:18;;;;;;;;;;;;;;;18.06;48.90;101441.63;5089056;28;1137;-51
2023/01/08 12:28:59;;;;;;;;;;;;;;;17.32;49.13;101441.38;5096623;28;1036;-52
2023/01/08 12:31:29;;;;;;;;;;;;;;;17.42;49.33;101441.47;5097624;28;1023;-49
2023/01/08 12:34:09;;;;;;;;;;;;;;;17.81;48.69;101434.00;5097727;28;1102;-55
2023/01/08 12:36:51;;;;;;;;;;;;;;;17.16;48.69;101432.16;5096423;28;1226;-50
2023/01/08 12:39:20;;;;;;;;;;;;;;;18.54;47.86;101442.38;5098151;28;1913;-52
2023/01/08 12:41:45;;;;;;;;;;;;;;;17.42;49.06;101435.16;5097539;28;1015;-53
2023/01/08 12:44:11;;;;;;;;;;;;;;;17.82;49.24;101432.94;5096223;28;1051;-55
2023/01/08 12:46:37;;;;;;;;;;;;;;;17.71;49.11;101434.78;5097281;28;1097;-52
2023/01/08 12:49:03;;;;;;;;;;;;;;;17.29;48.55;101436.41;5097669;28;1119;-53